Time;durP1;ratioP1;P1;durP2;ratioP2;P2;SDS_P1;SDS_P2;PMS_P1;PMS_P2;Temp;Humidity;BMP_temperature;BMP_pressure;BME280_temperature;BME280_humidity;BME280_pressure;Samples;Min_cycle;Max_cycle;Signal;HPM_P1;HPM_P2
2023/12/16 00:01:29;;;;;;;8.30;2.42;;;;;;;;;;5064281;28;42623;-69
2023/12/16 00:03:59;;;;;;;5.65;2.08;;;;;;;;;;5066288;28;43133;-67
2023/12/16 00:06:27;;;;;;;6.80;2.35;;;;;;;;;;5065769;28;39741;-67
2023/12/16 00:08:55;;;;;;;5.20;2.40;;;;;;;;;;5065822;28;41283;-66
2023/12/16 00:11:23;;;;;;;8.60;2.90;;;;;;;;;;5067963;28;42798;-66
2023/12/16 00:13:51;;;;;;;6.15;2.58;;;;;;;;;;5066750;28;41326;-66
2023/12/16 00:16:19;;;;;;;4.80;2.30;;;;;;;;;;5066434;28;42253;-67
2023/12/16 00:18:47;;;;;;;4.68;2.60;;;;;;;;;;5066615;28;39952;-67
2023/12/16 00:21:16;;;;;;;6.60;2.05;;;;;;;;;;5066138;28;41259;-67
2023/12/16 00:23:44;;;;;;;6.38;2.35;;;;;;;;;;5058734;28;41886;-67
2023/12/16 00:26:13;;;;;;;8.32;2.55;;;;;;;;;;5061937;28;41172;-67
2023/12/16 00:28:41;;;;;;;8.27;2.30;;;;;;;;;;5065031;28;41609;-67
2023/12/16 00:31:08;;;;;;;5.80;2.63;;;;;;;;;;5061621;28;41852;-67
2023/12/16 00:33:37;;;;;;;6.85;2.47;;;;;;;;;;5066009;28;41154;-67
2023/12/16 00:36:05;;;;;;;6.88;2.75;;;;;;;;;;5064775;28;42692;-66
2023/12/16 00:38:34;;;;;;;5.35;2.25;;;;;;;;;;5058217;28;39694;-67
2023/12/16 00:41:02;;;;;;;5.00;1.85;;;;;;;;;;5067015;28;41552;-67
2023/12/16 00:43:31;;;;;;;5.28;2.65;;;;;;;;;;5066290;28;42107;-67
2023/12/16 00:45:59;;;;;;;5.68;2.33;;;;;;;;;;5066159;28;40014;-67
2023/12/16 00:48:27;;;;;;;4.65;2.10;;;;;;;;;;5062079;28;42374;-66
2023/12/16 00:50:55;;;;;;;3.35;2.00;;;;;;;;;;5062890;28;42632;-68
2023/12/16 00:53:23;;;;;;;4.45;2.42;;;;;;;;;;5066434;28;40103;-66
2023/12/16 00:55:52;;;;;;;3.88;1.95;;;;;;;;;;5067394;28;41592;-67
2023/12/16 00:58:20;;;;;;;5.50;2.50;;;;;;;;;;5060724;28;40298;-68
2023/12/16 01:00:48;;;;;;;7.10;2.70;;;;;;;;;;5066965;28;41933;-66
2023/12/16 01:03:16;;;;;;;5.95;2.83;;;;;;;;;;5056676;28;42132;-67
2023/12/16 01:05:44;;;;;;;4.78;2.17;;;;;;;;;;5064152;28;40040;-66
2023/12/16 01:08:12;;;;;;;8.07;2.95;;;;;;;;;;5066160;28;41643;-67
2023/12/16 01:10:40;;;;;;;7.15;2.50;;;;;;;;;;5065529;28;42729;-66
2023/12/16 01:13:10;;;;;;;5.70;2.60;;;;;;;;;;5065522;28;39560;-66
2023/12/16 01:15:38;;;;;;;6.75;2.75;;;;;;;;;;5066302;28;41676;-67
2023/12/16 01:18:06;;;;;;;6.30;2.47;;;;;;;;;;5067149;28;40152;-66
2023/12/16 01:20:34;;;;;;;3.45;2.40;;;;;;;;;;5066767;28;41113;-68
2023/12/16 01:23:02;;;;;;;5.03;2.95;;;;;;;;;;5057036;28;41944;-66
2023/12/16 01:25:30;;;;;;;9.02;3.03;;;;;;;;;;5048325;28;41137;-67
2023/12/16 01:27:58;;;;;;;5.75;3.03;;;;;;;;;;5066787;28;41875;-68
2023/12/16 01:30:28;;;;;;;6.63;2.70;;;;;;;;;;5065657;28;41848;-67
2023/12/16 01:32:56;;;;;;;6.32;2.78;;;;;;;;;;5057594;28;39863;-67
2023/12/16 01:35:24;;;;;;;7.20;3.00;;;;;;;;;;5079484;28;41612;-67
2023/12/16 01:37:52;;;;;;;4.88;2.60;;;;;;;;;;5046162;28;41118;-67
2023/12/16 01:40:20;;;;;;;6.07;3.00;;;;;;;;;;5057781;28;41769;-66
2023/12/16 01:42:48;;;;;;;5.72;3.25;;;;;;;;;;5066670;28;42754;-67
2023/12/16 01:45:16;;;;;;;7.07;3.33;;;;;;;;;;5066330;28;41650;-66
2023/12/16 01:47:46;;;;;;;7.82;2.90;;;;;;;;;;5079943;28;42641;-67
2023/12/16 01:50:14;;;;;;;6.63;3.38;;;;;;;;;;5081681;28;42107;-66
2023/12/16 01:52:42;;;;;;;5.30;2.70;;;;;;;;;;5068420;28;40418;-67
2023/12/16 01:55:10;;;;;;;5.15;2.80;;;;;;;;;;5057478;28;41475;-66
2023/12/16 01:57:38;;;;;;;4.68;2.92;;;;;;;;;;5055448;28;43283;-67
2023/12/16 02:00:13;;;;;;;7.05;2.88;;;;;;;;;;5045041;28;39305;-67
2023/12/16 02:02:41;;;;;;;7.32;2.70;;;;;;;;;;5062279;28;43197;-67
2023/12/16 02:05:10;;;;;;;6.00;3.00;;;;;;;;;;5074759;28;41435;-67
2023/12/16 02:07:38;;;;;;;5.68;2.90;;;;;;;;;;5075951;28;41564;-66
2023/12/16 02:10:09;;;;;;;6.97;3.22;;;;;;;;;;5087335;28;20271;-67
2023/12/16 02:12:37;;;;;;;6.47;3.08;;;;;;;;;;5069849;28;39985;-66
2023/12/16 02:15:06;;;;;;;7.72;3.55;;;;;;;;;;5083391;28;42616;-66
2023/12/16 02:17:34;;;;;;;4.15;2.53;;;;;;;;;;5038173;28;40557;-66
2023/12/16 02:20:03;;;;;;;7.00;3.13;;;;;;;;;;5069577;28;40372;-67
2023/12/16 02:22:32;;;;;;;6.40;2.58;;;;;;;;;;5064594;28;42607;-67
2023/12/16 02:25:02;;;;;;;5.32;2.53;;;;;;;;;;5062517;28;40399;-67
2023/12/16 02:27:30;;;;;;;5.43;3.05;;;;;;;;;;5071986;28;41521;-67
2023/12/16 02:29:58;;;;;;;5.47;2.53;;;;;;;;;;5089401;28;42054;-67
2023/12/16 02:32:25;;;;;;;6.65;2.80;;;;;;;;;;5059886;28;40858;-67
2023/12/16 02:34:53;;;;;;;4.95;2.38;;;;;;;;;;5069274;28;41185;-66
2023/12/16 02:37:21;;;;;;;6.80;3.05;;;;;;;;;;5055609;28;42171;-67
2023/12/16 02:39:49;;;;;;;5.88;2.92;;;;;;;;;;5064028;28;42303;-66
2023/12/16 02:42:19;;;;;;;5.22;3.05;;;;;;;;;;5066564;28;42558;-67
2023/12/16 02:44:46;;;;;;;5.10;2.85;;;;;;;;;;5067415;28;41664;-66
2023/12/16 02:47:14;;;;;;;6.45;3.13;;;;;;;;;;5057062;28;42075;-67
2023/12/16 02:49:44;;;;;;;4.80;2.70;;;;;;;;;;5068944;28;42620;-67
2023/12/16 02:52:12;;;;;;;4.18;2.50;;;;;;;;;;5069633;28;41015;-66
2023/12/16 02:54:40;;;;;;;4.03;2.30;;;;;;;;;;5069030;28;41545;-67
2023/12/16 02:57:08;;;;;;;6.35;3.05;;;;;;;;;;5067951;28;42192;-68
2023/12/16 02:59:37;;;;;;;5.90;2.95;;;;;;;;;;5068632;28;40097;-67
2023/12/16 03:02:05;;;;;;;5.35;2.97;;;;;;;;;;5068734;28;42068;-67
2023/12/16 03:04:33;;;;;;;4.65;2.28;;;;;;;;;;5056353;28;43223;-66
2023/12/16 03:07:01;;;;;;;4.95;2.47;;;;;;;;;;5080734;28;40238;-67
2023/12/16 03:09:29;;;;;;;4.75;2.33;;;;;;;;;;5061178;28;43136;-67
2023/12/16 03:11:57;;;;;;;4.82;2.67;;;;;;;;;;5055808;28;38931;-67
2023/12/16 03:14:25;;;;;;;4.78;2.70;;;;;;;;;;5080014;28;43069;-67
2023/12/16 03:16:55;;;;;;;4.22;2.15;;;;;;;;;;5062941;28;42118;-67
2023/12/16 03:19:22;;;;;;;5.80;2.30;;;;;;;;;;5047676;28;40444;-67
2023/12/16 03:21:51;;;;;;;5.88;2.58;;;;;;;;;;5063837;28;41621;-66
2023/12/16 03:24:19;;;;;;;5.35;2.72;;;;;;;;;;5059807;28;41962;-66
2023/12/16 03:26:46;;;;;;;7.38;2.75;;;;;;;;;;5068214;28;40837;-67
2023/12/16 03:29:14;;;;;;;4.88;2.25;;;;;;;;;;5074675;28;41656;-66
2023/12/16 03:31:42;;;;;;;5.70;2.33;;;;;;;;;;5064259;28;40559;-67
2023/12/16 03:34:12;;;;;;;6.10;2.70;;;;;;;;;;5085673;28;41223;-67
2023/12/16 03:36:40;;;;;;;7.25;2.42;;;;;;;;;;5088698;28;41892;-67
2023/12/16 03:39:08;;;;;;;5.15;2.47;;;;;;;;;;5076415;28;40571;-67
2023/12/16 03:41:36;;;;;;;4.75;2.50;;;;;;;;;;5071199;28;42054;-67
2023/12/16 03:44:04;;;;;;;5.55;2.20;;;;;;;;;;5079012;28;42630;-67
2023/12/16 03:46:32;;;;;;;5.80;2.13;;;;;;;;;;5069252;28;39953;-67
2023/12/16 03:49:00;;;;;;;4.90;2.45;;;;;;;;;;5080416;28;41479;-67
2023/12/16 03:51:29;;;;;;;5.00;2.45;;;;;;;;;;5068215;28;40602;-67
2023/12/16 03:53:57;;;;;;;5.20;2.50;;;;;;;;;;5065704;28;41435;-66
2023/12/16 03:56:25;;;;;;;8.13;2.30;;;;;;;;;;5060908;28;42667;-67
2023/12/16 03:58:53;;;;;;;8.02;2.60;;;;;;;;;;5067838;28;41431;-67
2023/12/16 04:01:21;;;;;;;4.05;2.40;;;;;;;;;;5061381;28;41366;-67
2023/12/16 04:03:50;;;;;;;4.50;2.50;;;;;;;;;;5064038;28;41800;-67
2023/12/16 04:06:18;;;;;;;7.32;2.80;;;;;;;;;;5068043;28;40204;-67
2023/12/16 04:08:47;;;;;;;4.55;2.22;;;;;;;;;;5066943;28;41625;-66
2023/12/16 04:11:15;;;;;;;6.47;2.92;;;;;;;;;;5067733;28;41911;-66
2023/12/16 04:13:43;;;;;;;7.88;2.88;;;;;;;;;;5053862;28;41529;-67
2023/12/16 04:16:10;;;;;;;7.50;2.83;;;;;;;;;;5079876;28;43095;-67
2023/12/16 04:18:38;;;;;;;6.78;2.70;;;;;;;;;;5049227;28;41039;-68
2023/12/16 04:21:06;;;;;;;5.15;2.20;;;;;;;;;;5087243;28;41653;-67
2023/12/16 04:23:34;;;;;;;4.82;2.58;;;;;;;;;;5063773;28;42092;-67
2023/12/16 04:26:03;;;;;;;5.78;2.58;;;;;;;;;;5050815;28;40068;-67
2023/12/16 04:28:35;;;;;;;4.15;2.47;;;;;;;;;;5067363;28;41611;-66
2023/12/16 04:31:03;;;;;;;3.45;2.17;;;;;;;;;;5064773;28;42819;-67
2023/12/16 04:33:30;;;;;;;5.85;2.55;;;;;;;;;;5057881;28;40385;-67
2023/12/16 04:35:58;;;;;;;6.05;2.17;;;;;;;;;;5035427;28;40470;-66
2023/12/16 04:38:26;;;;;;;7.00;2.47;;;;;;;;;;5055467;28;40679;-67
2023/12/16 04:40:54;;;;;;;6.22;2.33;;;;;;;;;;5054387;28;41133;-67
2023/12/16 04:43:23;;;;;;;5.75;2.67;;;;;;;;;;5066551;28;42003;-67
2023/12/16 04:45:51;;;;;;;7.35;2.70;;;;;;;;;;5067432;28;40470;-67
2023/12/16 04:48:19;;;;;;;9.23;2.75;;;;;;;;;;5054279;28;41285;-66
2023/12/16 04:50:47;;;;;;;4.35;2.60;;;;;;;;;;5051161;28;42667;-67
2023/12/16 04:53:15;;;;;;;6.10;2.90;;;;;;;;;;5067224;28;40460;-67
2023/12/16 04:55:43;;;;;;;5.60;2.40;;;;;;;;;;5067304;28;42753;-67
2023/12/16 04:58:11;;;;;;;5.78;2.85;;;;;;;;;;5068279;28;39946;-67
2023/12/16 05:00:40;;;;;;;4.82;2.55;;;;;;;;;;5065595;28;42318;-66
2023/12/16 05:03:08;;;;;;;6.13;2.47;;;;;;;;;;5071708;28;42218;-66
2023/12/16 05:05:36;;;;;;;5.30;2.67;;;;;;;;;;5067796;28;40331;-67
2023/12/16 05:08:04;;;;;;;5.45;2.67;;;;;;;;;;5072867;28;42706;-67
2023/12/16 05:10:32;;;;;;;4.57;2.42;;;;;;;;;;5074132;28;42865;-67
2023/12/16 05:13:00;;;;;;;4.05;2.58;;;;;;;;;;5069434;28;39962;-67
2023/12/16 05:15:28;;;;;;;5.55;2.80;;;;;;;;;;5075822;28;41563;-67
2023/12/16 05:17:57;;;;;;;6.25;2.53;;;;;;;;;;5086262;28;32981;-66
2023/12/16 05:20:25;;;;;;;5.57;2.72;;;;;;;;;;5078676;28;42346;-67
2023/12/16 05:22:53;;;;;;;7.00;2.65;;;;;;;;;;5066514;28;42010;-67
2023/12/16 05:25:21;;;;;;;5.57;2.80;;;;;;;;;;5065838;28;41356;-67
2023/12/16 05:27:49;;;;;;;6.32;2.65;;;;;;;;;;5067222;28;43046;-67
2023/12/16 05:30:17;;;;;;;7.10;3.03;;;;;;;;;;5066552;28;42370;-67
2023/12/16 05:32:45;;;;;;;5.38;2.65;;;;;;;;;;5063427;28;40888;-67
2023/12/16 05:35:14;;;;;;;5.13;3.03;;;;;;;;;;5067092;28;42716;-67
2023/12/16 05:37:42;;;;;;;4.75;2.28;;;;;;;;;;5067035;28;43293;-66
2023/12/16 05:40:11;;;;;;;5.28;2.67;;;;;;;;;;5078605;28;41547;-67
2023/12/16 05:42:39;;;;;;;4.82;2.50;;;;;;;;;;5066464;28;42155;-67
2023/12/16 05:45:07;;;;;;;4.30;2.67;;;;;;;;;;5052538;28;39963;-67
2023/12/16 05:47:35;;;;;;;5.10;2.70;;;;;;;;;;5066419;28;42189;-67
2023/12/16 05:50:04;;;;;;;7.25;2.75;;;;;;;;;;5066365;28;43327;-67
2023/12/16 05:52:34;;;;;;;5.40;2.45;;;;;;;;;;5071157;28;40778;-67
2023/12/16 05:55:02;;;;;;;5.93;2.55;;;;;;;;;;5075668;28;41791;-67
2023/12/16 05:57:30;;;;;;;6.72;2.80;;;;;;;;;;5066475;28;41554;-68
2023/12/16 05:59:57;;;;;;;5.13;2.40;;;;;;;;;;5066762;28;41086;-66
2023/12/16 06:02:25;;;;;;;5.20;2.50;;;;;;;;;;5065321;28;42688;-66
2023/12/16 06:04:53;;;;;;;4.80;2.40;;;;;;;;;;5054187;28;40941;-68
2023/12/16 06:07:21;;;;;;;6.15;2.45;;;;;;;;;;5065957;28;41347;-67
2023/12/16 06:09:51;;;;;;;5.03;2.30;;;;;;;;;;5066897;28;41960;-67
2023/12/16 06:12:20;;;;;;;5.53;3.00;;;;;;;;;;5065639;28;41354;-67
2023/12/16 06:14:48;;;;;;;6.70;2.88;;;;;;;;;;5065464;28;41306;-66
2023/12/16 06:17:16;;;;;;;6.82;2.70;;;;;;;;;;5066164;28;42637;-67
2023/12/16 06:19:44;;;;;;;4.50;2.20;;;;;;;;;;5079989;28;39839;-66
2023/12/16 06:22:12;;;;;;;5.93;2.80;;;;;;;;;;5037552;28;41073;-66
2023/12/16 06:24:40;;;;;;;4.95;2.30;;;;;;;;;;5047494;28;40230;-67
2023/12/16 06:27:09;;;;;;;6.45;2.83;;;;;;;;;;5075030;28;41783;-67
2023/12/16 06:29:39;;;;;;;4.97;2.53;;;;;;;;;;5070335;28;42214;-66
2023/12/16 06:32:07;;;;;;;4.25;2.60;;;;;;;;;;5062692;28;40009;-66
2023/12/16 06:34:35;;;;;;;6.30;3.00;;;;;;;;;;5048803;28;40545;-67
2023/12/16 06:37:03;;;;;;;5.80;2.70;;;;;;;;;;5068379;28;41678;-67
2023/12/16 06:39:31;;;;;;;5.40;2.40;;;;;;;;;;5069472;28;40400;-68
2023/12/16 06:41:59;;;;;;;5.30;2.42;;;;;;;;;;5068926;28;41350;-66
2023/12/16 06:44:28;;;;;;;6.50;2.88;;;;;;;;;;5069303;28;42628;-67
2023/12/16 06:46:56;;;;;;;5.60;2.58;;;;;;;;;;5073815;28;42605;-67
2023/12/16 06:49:24;;;;;;;5.15;2.47;;;;;;;;;;5072367;28;41681;-66
2023/12/16 06:51:52;;;;;;;6.28;2.33;;;;;;;;;;5068737;28;40014;-67
2023/12/16 06:54:20;;;;;;;7.35;2.88;;;;;;;;;;5068465;28;41109;-67
2023/12/16 06:56:48;;;;;;;8.38;3.00;;;;;;;;;;5034580;28;40451;-67
2023/12/16 06:59:17;;;;;;;5.05;2.53;;;;;;;;;;5064833;28;41386;-67
2023/12/16 07:01:46;;;;;;;7.82;2.45;;;;;;;;;;5059957;28;42187;-67
2023/12/16 07:04:14;;;;;;;5.28;2.45;;;;;;;;;;5054815;28;42689;-67
2023/12/16 07:06:42;;;;;;;6.03;2.88;;;;;;;;;;5067987;28;39913;-67
2023/12/16 07:09:10;;;;;;;5.45;2.60;;;;;;;;;;5054965;28;42156;-67
2023/12/16 07:11:40;;;;;;;4.97;2.67;;;;;;;;;;5066573;28;41864;-67
2023/12/16 07:14:08;;;;;;;5.57;2.55;;;;;;;;;;5067858;28;41419;-67
2023/12/16 07:16:36;;;;;;;5.50;2.83;;;;;;;;;;5068533;28;42045;-66
2023/12/16 07:19:06;;;;;;;5.38;2.47;;;;;;;;;;5066506;28;41031;-67
2023/12/16 07:21:34;;;;;;;3.78;2.42;;;;;;;;;;5065995;28;42103;-66
2023/12/16 07:24:02;;;;;;;5.78;2.15;;;;;;;;;;5060241;28;43108;-66
2023/12/16 07:26:30;;;;;;;6.57;2.65;;;;;;;;;;5068718;28;39730;-67
2023/12/16 07:28:57;;;;;;;5.65;2.65;;;;;;;;;;5068234;28;43100;-67
2023/12/16 07:31:25;;;;;;;6.75;2.80;;;;;;;;;;5045557;28;39757;-67
2023/12/16 07:33:53;;;;;;;6.03;2.35;;;;;;;;;;5067482;28;41119;-67
2023/12/16 07:36:23;;;;;;;6.88;2.63;;;;;;;;;;5065463;28;42326;-66
2023/12/16 07:38:51;;;;;;;5.95;2.65;;;;;;;;;;5056697;28;40998;-67
2023/12/16 07:41:19;;;;;;;5.45;2.50;;;;;;;;;;5049231;28;41145;-67
2023/12/16 07:43:47;;;;;;;5.22;2.63;;;;;;;;;;5067964;28;42114;-67
2023/12/16 07:46:16;;;;;;;4.53;2.20;;;;;;;;;;5055294;28;40036;-67
2023/12/16 07:48:44;;;;;;;4.95;2.40;;;;;;;;;;5066706;28;41137;-67
2023/12/16 07:51:15;;;;;;;4.82;2.53;;;;;;;;;;5064709;28;40445;-66
2023/12/16 07:53:46;;;;;;;8.00;3.13;;;;;;;;;;5062983;28;41916;-66
2023/12/16 07:56:21;;;;;;;5.15;2.40;;;;;;;;;;5062066;28;43154;-67
2023/12/16 07:58:49;;;;;;;4.80;2.63;;;;;;;;;;5063477;28;41415;-66
2023/12/16 08:01:17;;;;;;;4.53;2.40;;;;;;;;;;5064020;28;41496;-67
2023/12/16 08:03:45;;;;;;;3.80;2.05;;;;;;;;;;5064872;28;42058;-67
2023/12/16 08:06:14;;;;;;;5.13;2.60;;;;;;;;;;5065554;28;40038;-67
2023/12/16 08:08:44;;;;;;;6.70;3.35;;;;;;;;;;5066014;28;42355;-66
2023/12/16 08:11:12;;;;;;;6.78;2.65;;;;;;;;;;5065566;28;41620;-66
2023/12/16 08:13:40;;;;;;;5.72;2.55;;;;;;;;;;5066775;28;42652;-67
2023/12/16 08:16:11;;;;;;;6.13;2.72;;;;;;;;;;5065748;28;42849;-69
2023/12/16 08:18:39;;;;;;;12.73;3.28;;;;;;;;;;5040348;28;39225;-69
2023/12/16 08:21:07;;;;;;;7.35;2.78;;;;;;;;;;5055744;28;42470;-69
2023/12/16 08:23:35;;;;;;;7.40;2.92;;;;;;;;;;5063182;28;42325;-69
2023/12/16 08:26:04;;;;;;;8.32;3.00;;;;;;;;;;5048362;28;40053;-68
2023/12/16 08:28:32;;;;;;;6.97;2.97;;;;;;;;;;5065441;28;42335;-68
2023/12/16 08:31:01;;;;;;;6.95;2.85;;;;;;;;;;5046065;28;41736;-68
2023/12/16 08:33:29;;;;;;;8.63;2.92;;;;;;;;;;5067699;28;40206;-68
2023/12/16 08:35:57;;;;;;;11.20;2.85;;;;;;;;;;5065727;28;41743;-68
2023/12/16 08:38:25;;;;;;;14.75;3.45;;;;;;;;;;5063651;28;40765;-68
2023/12/16 08:40:55;;;;;;;14.27;3.53;;;;;;;;;;5057084;28;42212;-68
2023/12/16 08:43:25;;;;;;;18.80;3.00;;;;;;;;;;5066557;28;43066;-68
2023/12/16 08:45:52;;;;;;;12.05;3.08;;;;;;;;;;5057487;28;41015;-69
2023/12/16 08:48:20;;;;;;;17.85;3.20;;;;;;;;;;5051232;28;41520;-70
2023/12/16 08:50:48;;;;;;;8.70;2.67;;;;;;;;;;5065546;28;41626;-70
2023/12/16 08:53:16;;;;;;;12.00;3.67;;;;;;;;;;5075396;28;40265;-71
2023/12/16 08:55:44;;;;;;;10.02;2.88;;;;;;;;;;5049007;28;42071;-69
2023/12/16 08:58:12;;;;;;;9.82;3.95;;;;;;;;;;5065042;28;40345;-69
2023/12/16 09:00:42;;;;;;;11.65;3.25;;;;;;;;;;5064901;28;41153;-74
2023/12/16 09:03:13;;;;;;;8.43;3.25;;;;;;;;;;5060209;28;42649;-74
2023/12/16 09:05:41;;;;;;;7.35;3.35;;;;;;;;;;5071913;28;42276;-73
2023/12/16 09:08:09;;;;;;;6.32;3.35;;;;;;;;;;5063321;28;42195;-75
2023/12/16 09:10:37;;;;;;;13.45;3.75;;;;;;;;;;5066288;28;42499;-74
2023/12/16 09:13:05;;;;;;;14.15;3.50;;;;;;;;;;5065097;28;41134;-75
2023/12/16 09:15:33;;;;;;;16.80;2.72;;;;;;;;;;5067690;28;41914;-76
2023/12/16 09:18:02;;;;;;;14.75;3.08;;;;;;;;;;5063913;28;42896;-74
2023/12/16 09:20:31;;;;;;;15.25;3.40;;;;;;;;;;5066838;28;41624;-75
2023/12/16 09:22:59;;;;;;;13.45;3.50;;;;;;;;;;5064952;28;43072;-76
2023/12/16 09:25:27;;;;;;;16.23;3.85;;;;;;;;;;5053779;28;40815;-75
2023/12/16 09:27:55;;;;;;;11.57;3.45;;;;;;;;;;5066311;28;42628;-78
2023/12/16 09:30:24;;;;;;;14.75;3.80;;;;;;;;;;5065986;28;41979;-76
2023/12/16 09:32:51;;;;;;;12.77;3.53;;;;;;;;;;5063742;28;41946;-74
2023/12/16 09:35:21;;;;;;;11.32;3.67;;;;;;;;;;5064849;28;41644;-73
2023/12/16 09:37:49;;;;;;;9.70;3.88;;;;;;;;;;5065000;28;42202;-73
2023/12/16 09:40:17;;;;;;;10.45;3.65;;;;;;;;;;5064988;28;42400;-72
2023/12/16 09:42:45;;;;;;;9.77;3.30;;;;;;;;;;5063790;28;43202;-73
2023/12/16 09:45:14;;;;;;;10.25;3.63;;;;;;;;;;5059304;28;41289;-75
2023/12/16 09:47:42;;;;;;;14.20;3.42;;;;;;;;;;5064005;28;41860;-74
2023/12/16 09:50:10;;;;;;;9.18;4.07;;;;;;;;;;5058540;28;42076;-73
2023/12/16 09:52:40;;;;;;;12.50;3.65;;;;;;;;;;5065426;28;40363;-72
2023/12/16 09:55:08;;;;;;;18.35;4.10;;;;;;;;;;5060561;28;42611;-72
2023/12/16 09:57:36;;;;;;;13.13;4.25;;;;;;;;;;5066329;28;43019;-70
2023/12/16 10:00:05;;;;;;;12.73;3.22;;;;;;;;;;5064060;28;41009;-70
2023/12/16 10:02:36;;;;;;;10.10;2.90;;;;;;;;;;5059203;28;42130;-70
2023/12/16 10:05:04;;;;;;;8.18;3.10;;;;;;;;;;5059070;28;41873;-69
2023/12/16 10:07:32;;;;;;;11.85;4.53;;;;;;;;;;5058981;28;42200;-70
2023/12/16 10:10:01;;;;;;;11.27;3.53;;;;;;;;;;5062967;28;43344;-71
2023/12/16 10:12:32;;;;;;;7.43;2.85;;;;;;;;;;5058514;28;40918;-70
2023/12/16 10:15:00;;;;;;;11.48;3.55;;;;;;;;;;5069350;28;42546;-70
2023/12/16 10:17:29;;;;;;;11.32;3.47;;;;;;;;;;5063680;28;41847;-70
2023/12/16 10:19:57;;;;;;;9.32;3.58;;;;;;;;;;5068798;28;40080;-70
2023/12/16 10:22:25;;;;;;;10.40;3.25;;;;;;;;;;5069568;28;41655;-70
2023/12/16 10:24:53;;;;;;;10.45;3.25;;;;;;;;;;5069385;28;40951;-70
2023/12/16 10:27:23;;;;;;;9.93;4.30;;;;;;;;;;5066217;28;41601;-71
2023/12/16 10:29:52;;;;;;;8.20;3.70;;;;;;;;;;5063987;28;42061;-70
2023/12/16 10:32:34;;;;;;;7.38;3.05;;;;;;;;;;5066738;28;40121;-70
2023/12/16 10:35:02;;;;;;;10.70;4.43;;;;;;;;;;5061618;28;41674;-71
2023/12/16 10:37:31;;;;;;;9.68;4.50;;;;;;;;;;5063383;28;42030;-70
2023/12/16 10:39:59;;;;;;;13.50;5.38;;;;;;;;;;5063186;28;40503;-70
2023/12/16 10:42:28;;;;;;;17.27;5.70;;;;;;;;;;5049211;28;42632;-70
2023/12/16 10:44:56;;;;;;;16.13;5.07;;;;;;;;;;5053608;28;41704;-70
2023/12/16 10:47:25;;;;;;;21.92;5.47;;;;;;;;;;5068827;28;41537;-70
2023/12/16 10:49:53;;;;;;;11.70;5.10;;;;;;;;;;5061274;28;42108;-71
2023/12/16 10:52:21;;;;;;;15.40;5.85;;;;;;;;;;5061776;28;40457;-70
2023/12/16 10:54:51;;;;;;;15.73;4.90;;;;;;;;;;5060237;28;41602;-72
2023/12/16 10:57:20;;;;;;;14.95;5.38;;;;;;;;;;5065183;28;43127;-74
2023/12/16 10:59:55;;;;;;;24.40;6.20;;;;;;;;;;5049824;28;40448;-71
2023/12/16 11:02:23;;;;;;;32.30;7.53;;;;;;;;;;5062988;28;40640;-71
2023/12/16 11:04:57;;;;;;;19.60;6.97;;;;;;;;;;5057051;28;41900;-72
2023/12/16 11:07:25;;;;;;;20.20;7.25;;;;;;;;;;5066230;28;40032;-73
2023/12/16 11:09:53;;;;;;;24.95;8.15;;;;;;;;;;5066578;28;43603;-73
2023/12/16 11:12:21;;;;;;;26.25;6.68;;;;;;;;;;5067780;28;40300;-72
2023/12/16 11:14:54;;;;;;;17.88;6.35;;;;;;;;;;5068397;28;41274;-72
2023/12/16 11:17:24;;;;;;;20.63;7.50;;;;;;;;;;5069825;28;41862;-72
2023/12/16 11:19:53;;;;;;;23.38;6.30;;;;;;;;;;5065837;28;41393;-75
2023/12/16 11:22:21;;;;;;;27.27;7.05;;;;;;;;;;5065950;28;41235;-72
2023/12/16 11:24:49;;;;;;;22.77;8.52;;;;;;;;;;5065436;28;43291;-72
2023/12/16 11:27:17;;;;;;;18.73;9.68;;;;;;;;;;5067087;28;40618;-72
2023/12/16 11:29:45;;;;;;;21.67;8.55;;;;;;;;;;5062227;28;42112;-71
2023/12/16 11:32:14;;;;;;;29.85;14.00;;;;;;;;;;5058329;28;41367;-74
2023/12/16 11:34:43;;;;;;;21.88;9.88;;;;;;;;;;5065429;28;42535;-70
2023/12/16 11:37:11;;;;;;;29.63;17.48;;;;;;;;;;5065860;28;41977;-70
2023/12/16 11:39:40;;;;;;;26.42;11.63;;;;;;;;;;5064169;28;40292;-71
2023/12/16 11:42:09;;;;;;;20.65;11.45;;;;;;;;;;5065844;28;41353;-69
2023/12/16 11:44:52;;;;;;;26.17;11.02;;;;;;;;;;5062780;28;41926;-70
2023/12/16 11:47:25;;;;;;;20.67;9.77;;;;;;;;;;5057878;28;39931;-72
2023/12/16 11:49:53;;;;;;;18.08;9.75;;;;;;;;;;5056157;28;41760;-70
2023/12/16 11:52:22;;;;;;;14.65;9.40;;;;;;;;;;5062478;28;41510;-74
2023/12/16 11:54:50;;;;;;;23.00;9.43;;;;;;;;;;5056904;28;41165;-72
2023/12/16 11:57:21;;;;;;;17.30;8.52;;;;;;;;;;5064588;28;41813;-73
2023/12/16 11:59:52;;;;;;;16.15;8.63;;;;;;;;;;5055727;28;40471;-74
2023/12/16 12:02:20;;;;;;;16.63;8.60;;;;;;;;;;5047480;28;40831;-75
2023/12/16 12:04:50;;;;;;;16.77;8.23;;;;;;;;;;5066088;28;41741;-72
2023/12/16 12:07:18;;;;;;;16.92;7.75;;;;;;;;;;5065539;28;40945;-72
2023/12/16 12:09:46;;;;;;;17.13;7.60;;;;;;;;;;5065711;28;42147;-73
2023/12/16 12:12:14;;;;;;;18.20;7.25;;;;;;;;;;5067387;28;41880;-72
2023/12/16 12:14:45;;;;;;;15.25;7.93;;;;;;;;;;5062542;28;41638;-73
2023/12/16 12:17:13;;;;;;;18.77;7.32;;;;;;;;;;5059910;28;41593;-68
2023/12/16 12:19:43;;;;;;;17.08;6.82;;;;;;;;;;5064876;28;40355;-68
2023/12/16 12:22:12;;;;;;;15.18;6.82;;;;;;;;;;5066158;28;40809;-69
2023/12/16 12:24:41;;;;;;;13.48;6.47;;;;;;;;;;5051920;28;42216;-68
2023/12/16 12:27:09;;;;;;;14.05;7.38;;;;;;;;;;5064155;28;40342;-68
2023/12/16 12:29:53;;;;;;;16.83;7.22;;;;;;;;;;5065150;28;41041;-71
2023/12/16 12:32:21;;;;;;;16.50;7.22;;;;;;;;;;5060573;28;42748;-69
2023/12/16 12:34:56;;;;;;;12.38;6.15;;;;;;;;;;5063163;28;41003;-71
2023/12/16 12:37:27;;;;;;;16.85;6.95;;;;;;;;;;5060993;28;42276;-68
2023/12/16 12:39:57;;;;;;;13.70;7.18;;;;;;;;;;5055122;28;42194;-68
2023/12/16 12:42:25;;;;;;;15.57;6.72;;;;;;;;;;5063566;28;42139;-67
2023/12/16 12:44:53;;;;;;;13.55;6.07;;;;;;;;;;5064409;28;41743;-70
2023/12/16 12:47:27;;;;;;;12.10;5.97;;;;;;;;;;5059394;28;40087;-68
2023/12/16 12:49:56;;;;;;;12.23;5.68;;;;;;;;;;5061968;28;42658;-68
2023/12/16 12:52:37;;;;;;;10.85;5.82;;;;;;;;;;5045665;28;41626;-70
2023/12/16 12:55:25;;;;;;;13.57;5.45;;;;;;;;;;5062524;28;41468;-71
2023/12/16 12:57:58;;;;;;;14.52;6.50;;;;;;;;;;5065745;28;41551;-69
2023/12/16 13:00:38;;;;;;;10.07;4.93;;;;;;;;;;5061726;28;40526;-69
2023/12/16 13:03:07;;;;;;;10.23;5.93;;;;;;;;;;5057647;28;42160;-69
2023/12/16 13:05:35;;;;;;;12.65;5.40;;;;;;;;;;5059110;28;42102;-69
2023/12/16 13:08:05;;;;;;;10.68;4.85;;;;;;;;;;5060132;28;40448;-69
2023/12/16 13:10:33;;;;;;;9.90;5.05;;;;;;;;;;5058971;28;41102;-69
2023/12/16 13:13:01;;;;;;;10.93;5.40;;;;;;;;;;5061428;28;41815;-69
2023/12/16 13:15:29;;;;;;;7.95;4.80;;;;;;;;;;5061751;28;40983;-69
2023/12/16 13:18:17;;;;;;;12.13;4.70;;;;;;;;;;5059066;28;41168;-69
2023/12/16 13:20:45;;;;;;;8.13;4.55;;;;;;;;;;5063987;28;42565;-69
2023/12/16 13:23:15;;;;;;;15.73;6.43;;;;;;;;;;5060508;28;41347;-69
2023/12/16 13:25:43;;;;;;;10.88;5.90;;;;;;;;;;5057571;28;41532;-69
2023/12/16 13:28:11;;;;;;;14.70;4.63;;;;;;;;;;5063008;28;40274;-69
2023/12/16 13:30:40;;;;;;;7.68;4.90;;;;;;;;;;5060276;28;40810;-69
2023/12/16 13:33:08;;;;;;;8.05;4.43;;;;;;;;;;5064624;28;42108;-69
2023/12/16 13:35:36;;;;;;;8.57;5.97;;;;;;;;;;5063844;28;39687;-69
2023/12/16 13:38:04;;;;;;;10.68;5.38;;;;;;;;;;5059189;28;41254;-69
2023/12/16 13:40:34;;;;;;;10.65;6.57;;;;;;;;;;5069696;28;41120;-69
2023/12/16 13:43:10;;;;;;;13.00;5.40;;;;;;;;;;5064863;28;40324;-69
2023/12/16 13:45:38;;;;;;;7.22;3.88;;;;;;;;;;5069771;28;42338;-69
2023/12/16 13:48:05;;;;;;;6.50;4.07;;;;;;;;;;5069055;28;41171;-69
2023/12/16 13:50:33;;;;;;;11.57;4.78;;;;;;;;;;5066389;28;42594;-69
2023/12/16 13:53:02;;;;;;;9.85;5.10;;;;;;;;;;5066492;28;41750;-69
2023/12/16 13:55:30;;;;;;;6.90;4.20;;;;;;;;;;5062981;28;40199;-69
2023/12/16 13:57:59;;;;;;;8.90;5.18;;;;;;;;;;5066509;28;41471;-69
2023/12/16 14:00:27;;;;;;;7.70;4.35;;;;;;;;;;5066504;28;42928;-69
2023/12/16 14:02:55;;;;;;;8.07;4.25;;;;;;;;;;5069089;28;41437;-69
2023/12/16 14:05:23;;;;;;;10.13;5.03;;;;;;;;;;5064793;28;42393;-69
2023/12/16 14:07:51;;;;;;;8.15;3.85;;;;;;;;;;5062028;28;39953;-69
2023/12/16 14:10:19;;;;;;;10.02;4.05;;;;;;;;;;5066546;28;41513;-69
2023/12/16 14:12:47;;;;;;;7.00;3.50;;;;;;;;;;5065125;28;42067;-69
2023/12/16 14:15:16;;;;;;;9.77;4.82;;;;;;;;;;5065249;28;41285;-69
2023/12/16 14:17:44;;;;;;;7.00;3.33;;;;;;;;;;5068040;28;42377;-69
2023/12/16 14:20:12;;;;;;;9.75;5.07;;;;;;;;;;5065209;28;42151;-69
2023/12/16 14:22:40;;;;;;;6.75;4.25;;;;;;;;;;5066168;28;40029;-69
2023/12/16 14:25:09;;;;;;;7.68;4.55;;;;;;;;;;5062589;28;42204;-69
2023/12/16 14:27:38;;;;;;;6.63;4.63;;;;;;;;;;5066016;28;40071;-69
2023/12/16 14:30:07;;;;;;;7.20;4.93;;;;;;;;;;5065349;28;42442;-69
2023/12/16 14:32:36;;;;;;;7.60;3.83;;;;;;;;;;5063705;28;43047;-69
2023/12/16 14:35:08;;;;;;;6.75;4.05;;;;;;;;;;5062938;28;39989;-69
2023/12/16 14:37:36;;;;;;;5.32;3.10;;;;;;;;;;5064027;28;41793;-70
2023/12/16 14:40:06;;;;;;;7.93;3.38;;;;;;;;;;5065867;28;42010;-73
2023/12/16 14:42:34;;;;;;;7.47;4.75;;;;;;;;;;5066189;28;39176;-74
2023/12/16 14:45:02;;;;;;;6.70;3.75;;;;;;;;;;5053053;28;41671;-73
2023/12/16 14:47:30;;;;;;;8.80;4.22;;;;;;;;;;5064861;28;43141;-73